createdAt,value
2019-05-02T00:02:28.786Z,7.20
2019-05-02T00:04:58.845Z,7.30
2019-05-02T00:07:27.242Z,7.30
2019-05-02T00:09:55.808Z,7.30
2019-05-02T00:14:56.585Z,7.20
2019-05-02T00:17:25.523Z,7.00
2019-05-02T00:22:22.308Z,6.90
2019-05-02T00:24:50.724Z,6.90
2019-05-02T00:27:19.125Z,6.80
2019-05-02T00:32:18.289Z,6.70
2019-05-02T00:34:45.724Z,6.70
2019-05-02T00:39:45.118Z,6.50
2019-05-02T00:42:13.188Z,6.40
2019-05-02T00:44:46.837Z,6.30
2019-05-02T00:47:26.348Z,6.20
2019-05-02T00:49:54.755Z,6.40
2019-05-02T00:52:23.140Z,6.40
2019-05-02T00:57:21.805Z,6.40
2019-05-02T00:59:50.208Z,6.30
2019-05-02T01:02:25.956Z,6.30
2019-05-02T01:04:54.361Z,6.40
2019-05-02T01:07:25.633Z,6.40
2019-05-02T01:09:52.880Z,6.40
2019-05-02T01:12:26.495Z,6.30
2019-05-02T01:14:51.406Z,6.30
2019-05-02T01:17:19.869Z,6.30
2019-05-02T01:19:51.439Z,6.30
2019-05-02T01:24:46.464Z,6.20
2019-05-02T01:27:19.643Z,6.20
2019-05-02T01:32:41.765Z,6.00
2019-05-02T01:35:14.463Z,5.80
2019-05-02T01:38:00.670Z,5.70
2019-05-02T01:42:59.384Z,5.70
2019-05-02T01:45:27.796Z,5.80
2019-05-02T01:50:43.782Z,5.70
2019-05-02T01:53:12.163Z,5.70
2019-05-02T01:55:40.577Z,5.60
2019-05-02T01:58:08.964Z,5.60
2019-05-02T02:00:40.896Z,5.60
2019-05-02T02:05:37.917Z,5.40
2019-05-02T02:10:34.453Z,5.40
2019-05-02T02:13:05.077Z,5.30
2019-05-02T02:18:01.054Z,5.20
2019-05-02T02:20:31.084Z,5.20
2019-05-02T02:23:01.123Z,5.10
2019-05-02T02:25:48.992Z,5.30
2019-05-02T02:28:17.397Z,5.30
2019-05-02T02:30:45.793Z,5.40
2019-05-02T02:35:49.570Z,5.40
2019-05-02T02:38:12.457Z,5.40
2019-05-02T02:46:21.105Z,5.40
2019-05-02T02:48:49.509Z,5.50
2019-05-02T02:51:23.807Z,5.40
2019-05-02T02:53:48.043Z,5.50
2019-05-02T02:56:16.443Z,5.50
2019-05-02T02:58:47.485Z,5.50
2019-05-02T03:01:27.775Z,5.50
2019-05-02T03:03:45.121Z,5.60
2019-05-02T03:08:46.243Z,5.60
2019-05-02T03:11:22.444Z,5.60
2019-05-02T03:14:07.178Z,5.60
2019-05-02T03:16:33.134Z,5.60
2019-05-02T03:19:01.534Z,5.70
2019-05-02T03:21:29.996Z,5.60
2019-05-02T03:24:03.146Z,5.70
2019-05-02T03:26:28.647Z,5.70
2019-05-02T03:28:58.707Z,5.70
2019-05-02T03:31:30.593Z,5.70
2019-05-02T03:34:00.597Z,5.70
2019-05-02T03:36:34.897Z,5.70
2019-05-02T03:38:58.802Z,5.70
2019-05-02T03:41:27.171Z,5.70
2019-05-02T03:44:09.695Z,5.80
2019-05-02T03:46:25.837Z,5.80
2019-05-02T03:49:06.049Z,5.80
2019-05-02T03:51:25.228Z,5.80
2019-05-02T03:54:06.480Z,5.80
2019-05-02T03:56:24.291Z,5.80
2019-05-02T03:58:57.795Z,5.80
2019-05-02T04:01:23.682Z,5.80
2019-05-02T04:03:53.157Z,5.80
2019-05-02T04:08:58.722Z,5.90
2019-05-02T04:11:24.296Z,5.90
2019-05-02T04:13:54.376Z,5.80
2019-05-02T04:16:23.309Z,5.90
2019-05-02T04:21:25.993Z,6.00
2019-05-02T04:23:53.081Z,6.00
2019-05-02T04:26:21.463Z,6.10
2019-05-02T04:28:51.697Z,6.10
2019-05-02T04:31:24.877Z,6.20
2019-05-02T04:33:50.118Z,6.20
2019-05-02T04:36:18.513Z,6.40
2019-05-02T04:41:18.813Z,6.50
2019-05-02T04:43:53.243Z,6.50
2019-05-02T04:46:21.862Z,6.60
2019-05-02T04:48:49.784Z,6.70
2019-05-02T04:51:20.214Z,6.70
2019-05-02T04:53:49.852Z,6.80
2019-05-02T04:56:18.475Z,6.90
2019-05-02T04:58:49.404Z,6.90
2019-05-02T05:01:17.614Z,7.10
2019-05-02T05:03:49.128Z,7.20
2019-05-02T05:08:48.245Z,7.40
2019-05-02T05:11:20.895Z,7.50
2019-05-02T05:13:47.936Z,7.60
2019-05-02T05:16:18.493Z,7.80
2019-05-02T05:21:17.948Z,8.00
2019-05-02T05:23:51.727Z,8.10
2019-05-02T05:29:08.121Z,8.40
2019-05-02T05:31:38.175Z,8.50
2019-05-02T05:34:08.023Z,8.60
2019-05-02T05:36:37.491Z,8.80
2019-05-02T05:39:08.625Z,8.90
2019-05-02T05:41:37.802Z,9.00
2019-05-02T05:44:07.780Z,9.20
2019-05-02T05:46:38.754Z,9.30
2019-05-02T05:49:12.584Z,9.50
2019-05-02T05:51:37.515Z,9.60
2019-05-02T05:54:07.749Z,9.80
2019-05-02T06:01:57.999Z,10.50
2019-05-02T06:04:32.616Z,10.60
2019-05-02T06:06:59.396Z,10.90
2019-05-02T06:09:30.947Z,11.30
2019-05-02T06:11:56.760Z,11.70
2019-05-02T06:16:55.025Z,13.00
2019-05-02T06:21:51.551Z,14.50
2019-05-02T06:26:49.736Z,15.70
2019-05-02T06:29:20.588Z,16.40
2019-05-02T06:31:48.280Z,17.00
2019-05-02T06:34:38.780Z,17.30
2019-05-02T06:37:08.238Z,17.70
2019-05-02T06:39:36.376Z,18.00
2019-05-02T06:42:04.845Z,18.30
2019-05-02T06:44:33.244Z,18.70
2019-05-02T06:47:04.329Z,19.00
2019-05-02T06:49:31.832Z,19.30
2019-05-02T06:52:00.244Z,19.40
2019-05-02T06:56:56.719Z,19.60
2019-05-02T06:59:25.116Z,19.60
2019-05-02T07:04:25.050Z,20.10
2019-05-02T07:06:58.524Z,20.50
2019-05-02T07:09:23.883Z,20.80
2019-05-02T07:14:23.414Z,21.50
2019-05-02T07:16:56.277Z,21.90
2019-05-02T07:19:29.417Z,22.20
2019-05-02T07:22:00.368Z,22.20
2019-05-02T07:24:30.613Z,22.30
2019-05-02T07:26:58.482Z,22.50
2019-05-02T07:29:26.873Z,22.70
2019-05-02T07:31:55.376Z,22.90
2019-05-02T07:34:23.837Z,23.30
2019-05-02T07:36:52.308Z,23.60
2019-05-02T07:39:20.711Z,24.00
2019-05-02T07:41:49.130Z,24.10
2019-05-02T07:44:17.525Z,24.20
2019-05-02T07:46:51.955Z,24.40
2019-05-02T07:49:16.056Z,24.40
2019-05-02T07:51:44.469Z,24.50
2019-05-02T07:54:12.875Z,24.70
2019-05-02T07:59:09.351Z,24.90
2019-05-02T08:01:37.837Z,25.00
2019-05-02T08:04:11.346Z,25.10
2019-05-02T08:06:40.208Z,25.20
2019-05-02T08:09:09.276Z,25.20
2019-05-02T08:11:38.549Z,25.00
2019-05-02T08:14:07.076Z,25.00
2019-05-02T08:17:04.939Z,24.90
2019-05-02T08:19:24.948Z,24.80
2019-05-02T08:21:53.370Z,25.00
2019-05-02T08:27:10.825Z,25.30
2019-05-02T08:34:35.451Z,25.40
2019-05-02T08:37:04.910Z,25.10
2019-05-02T08:39:33.895Z,25.10
2019-05-02T08:42:04.045Z,25.30
2019-05-02T08:44:32.450Z,25.20
2019-05-02T08:47:00.853Z,25.40
2019-05-02T08:49:29.265Z,25.40
2019-05-02T08:51:57.668Z,25.60
2019-05-02T08:54:27.963Z,26.00
2019-05-02T08:56:59.095Z,26.30
2019-05-02T09:01:54.893Z,26.40
2019-05-02T09:04:24.169Z,26.10
2019-05-02T09:12:04.830Z,25.90
2019-05-02T09:16:52.374Z,26.10
2019-05-02T09:19:24.966Z,25.80
2019-05-02T09:21:52.557Z,25.80
2019-05-02T09:24:23.791Z,26.10
2019-05-02T09:26:51.888Z,26.00
2019-05-02T09:29:22.196Z,25.40
2019-05-02T09:31:52.705Z,25.20
2019-05-02T09:34:25.000Z,25.30
2019-05-02T09:36:52.995Z,25.70
2019-05-02T09:39:22.765Z,25.90
2019-05-02T09:41:52.614Z,25.80
2019-05-02T09:46:53.059Z,26.10
2019-05-02T09:51:59.242Z,26.30
2019-05-02T09:54:22.820Z,26.50
2019-05-02T09:59:29.206Z,27.40
2019-05-02T10:01:52.758Z,26.90
2019-05-02T10:04:22.414Z,25.50
2019-05-02T10:06:52.486Z,24.60
2019-05-02T10:09:24.402Z,24.10
2019-05-02T10:11:52.556Z,24.30
2019-05-02T10:19:25.313Z,22.20
2019-05-02T10:24:22.171Z,23.20
2019-05-02T10:26:55.268Z,23.50
2019-05-02T10:29:28.074Z,23.20
2019-05-02T10:31:52.663Z,22.70
2019-05-02T10:34:22.596Z,23.00
2019-05-02T10:36:58.306Z,23.60
2019-05-02T10:39:23.177Z,24.10
2019-05-02T10:44:42.601Z,23.50
2019-05-02T10:52:13.120Z,22.00
2019-05-02T10:54:42.190Z,21.60
2019-05-02T10:57:12.648Z,21.30
2019-05-02T11:02:24.309Z,21.00
2019-05-02T11:04:57.043Z,21.00
2019-05-02T11:07:26.480Z,21.10
2019-05-02T11:09:57.455Z,21.20
2019-05-02T11:12:40.277Z,21.20
2019-05-02T11:15:02.303Z,21.20
2019-05-02T11:17:32.523Z,21.10
2019-05-02T11:20:05.104Z,21.10
2019-05-02T11:22:33.517Z,20.90
2019-05-02T11:25:02.155Z,20.90
2019-05-02T11:27:32.759Z,20.80
2019-05-02T11:30:02.722Z,20.70
2019-05-02T11:32:32.704Z,20.80
2019-05-02T11:35:02.979Z,20.70
2019-05-02T11:37:32.843Z,20.50
2019-05-02T11:40:05.281Z,20.40
2019-05-02T11:45:02.645Z,20.20
2019-05-02T11:50:02.398Z,20.20
2019-05-02T11:52:33.001Z,20.20
2019-05-02T11:57:33.014Z,20.20
2019-05-02T12:05:03.572Z,20.00
2019-05-02T12:07:32.445Z,19.90
2019-05-02T12:15:02.547Z,19.80
2019-05-02T12:17:32.557Z,19.80
2019-05-02T12:20:02.054Z,19.70
2019-05-02T12:22:32.468Z,19.60
2019-05-02T12:25:02.866Z,19.60
2019-05-02T12:27:31.859Z,19.60
2019-05-02T12:30:00.404Z,19.60
2019-05-02T12:32:29.588Z,19.60
2019-05-02T12:34:57.983Z,19.60
2019-05-02T12:37:26.406Z,19.50
2019-05-02T12:42:23.886Z,19.40
2019-05-02T12:44:53.352Z,19.40
2019-05-02T12:47:22.572Z,19.40
2019-05-02T12:49:51.911Z,19.30
2019-05-02T12:54:48.590Z,19.30
2019-05-02T12:57:16.996Z,19.30
2019-05-02T12:59:45.396Z,19.30
2019-05-02T13:02:15.452Z,19.40
2019-05-02T13:04:43.875Z,19.40
2019-05-02T13:07:12.739Z,19.40
2019-05-02T13:12:15.715Z,19.50
2019-05-02T13:14:44.128Z,19.40
2019-05-02T13:17:12.608Z,19.30
2019-05-02T13:19:48.865Z,19.40
2019-05-02T13:22:15.548Z,19.40
2019-05-02T13:24:47.050Z,19.40
2019-05-02T13:27:17.030Z,19.40
2019-05-02T13:34:53.930Z,19.30
2019-05-02T13:37:22.535Z,19.30
2019-05-02T13:39:53.113Z,19.30
2019-05-02T13:42:22.010Z,19.20
2019-05-02T13:45:08.448Z,19.20
2019-05-02T13:47:36.848Z,19.10
2019-05-02T13:50:06.960Z,19.10
2019-05-02T13:52:35.367Z,19.20
2019-05-02T13:55:08.347Z,19.30
2019-05-02T14:00:08.292Z,19.30
2019-05-02T14:02:43.520Z,19.30
2019-05-02T14:07:55.650Z,19.10
2019-05-02T14:10:39.272Z,19.10
2019-05-02T14:13:04.022Z,19.00
2019-05-02T14:15:34.069Z,19.00
2019-05-02T14:18:02.657Z,19.00
2019-05-02T14:20:33.119Z,19.00
2019-05-02T14:25:32.158Z,19.10
2019-05-02T14:30:37.108Z,19.30
2019-05-02T14:38:13.076Z,19.40
2019-05-02T14:43:15.144Z,19.40
2019-05-02T14:48:20.071Z,19.40
2019-05-02T14:50:46.032Z,19.20
2019-05-02T14:53:16.819Z,19.20
2019-05-02T14:55:47.075Z,19.20
2019-05-02T14:58:15.478Z,19.10
2019-05-02T15:00:47.890Z,19.10
2019-05-02T15:03:19.049Z,19.00
2019-05-02T15:05:45.849Z,19.00
2019-05-02T15:08:14.249Z,19.00
2019-05-02T15:10:50.777Z,18.90
2019-05-02T15:13:12.791Z,18.90
2019-05-02T15:15:43.478Z,18.90
2019-05-02T15:18:13.470Z,18.90
2019-05-02T15:20:42.410Z,18.80
2019-05-02T15:23:14.471Z,18.80
2019-05-02T15:25:42.389Z,18.80
2019-05-02T15:28:13.109Z,18.80
2019-05-02T15:30:47.846Z,18.80
2019-05-02T15:33:17.123Z,18.80
2019-05-02T15:35:49.476Z,18.80
2019-05-02T15:38:24.682Z,18.70
2019-05-02T15:40:51.346Z,18.70
2019-05-02T15:43:18.138Z,18.70
2019-05-02T15:45:46.630Z,18.60
2019-05-02T15:50:50.221Z,18.60
2019-05-02T15:53:16.669Z,18.70
2019-05-02T15:55:45.068Z,18.80
2019-05-02T16:00:52.035Z,18.90
2019-05-02T16:03:22.020Z,19.00
2019-05-02T16:05:52.392Z,19.00
2019-05-02T16:08:21.545Z,19.00
2019-05-02T16:10:50.132Z,19.10
2019-05-02T16:13:18.540Z,19.00
2019-05-02T16:15:46.935Z,18.90
2019-05-02T16:21:04.181Z,18.90
2019-05-02T16:23:29.458Z,18.80
2019-05-02T16:26:10.480Z,18.80
2019-05-02T16:28:44.207Z,18.70
2019-05-02T16:31:12.449Z,18.80
2019-05-02T16:33:41.769Z,18.80
2019-05-02T16:46:06.823Z,19.00
2019-05-02T16:48:37.588Z,19.00
2019-05-02T16:51:08.234Z,18.90
2019-05-02T16:53:34.716Z,18.70
2019-05-02T16:56:06.994Z,18.60
2019-05-02T17:01:04.916Z,18.30
2019-05-02T17:03:33.325Z,18.20
2019-05-02T17:06:01.795Z,18.10
2019-05-02T17:08:32.814Z,18.10
2019-05-02T17:11:03.171Z,18.00
2019-05-02T17:13:32.769Z,18.00
2019-05-02T17:16:06.951Z,18.00
2019-05-02T17:18:32.668Z,18.00
2019-05-02T17:23:30.289Z,18.00
2019-05-02T17:28:26.814Z,17.90
2019-05-02T17:30:55.458Z,17.80
2019-05-02T17:35:54.235Z,17.70
2019-05-02T17:38:24.958Z,17.60
2019-05-02T17:43:22.710Z,17.50
2019-05-02T17:45:51.539Z,17.50
2019-05-02T17:48:19.988Z,17.40
2019-05-02T17:50:59.086Z,17.40
2019-05-02T17:53:25.729Z,17.40
2019-05-02T17:55:54.136Z,17.40
2019-05-02T17:58:22.550Z,17.30
2019-05-02T18:00:57.017Z,17.30
2019-05-02T18:03:24.276Z,17.20
2019-05-02T18:05:53.012Z,17.10
2019-05-02T18:16:02.787Z,16.60
2019-05-02T18:18:31.928Z,16.60
2019-05-02T18:21:02.057Z,16.50
2019-05-02T18:23:32.236Z,16.40
2019-05-02T18:26:04.451Z,16.20
2019-05-02T18:28:30.922Z,16.00
2019-05-02T18:31:02.826Z,15.90
2019-05-02T18:33:29.460Z,15.70
2019-05-02T18:35:57.932Z,15.70
2019-05-02T18:38:26.336Z,15.70
2019-05-02T18:40:55.460Z,15.60
2019-05-02T18:43:24.232Z,15.60
2019-05-02T18:48:21.911Z,15.50
2019-05-02T18:53:24.088Z,15.30
2019-05-02T18:55:51.957Z,15.20
2019-05-02T18:58:22.519Z,15.10
2019-05-02T19:00:51.960Z,15.10
2019-05-02T19:03:20.690Z,15.10
2019-05-02T19:05:51.526Z,15.10
2019-05-02T19:08:30.523Z,15.20
2019-05-02T19:13:19.835Z,15.10
2019-05-02T19:15:49.046Z,15.10
2019-05-02T19:18:18.424Z,15.00
2019-05-02T19:20:57.617Z,14.90
2019-05-02T19:23:24.287Z,14.80
2019-05-02T19:25:52.912Z,14.80
2019-05-02T19:28:34.670Z,14.70
2019-05-02T19:31:02.927Z,14.70
2019-05-02T19:36:24.419Z,14.70
2019-05-02T19:38:47.996Z,14.70
2019-05-02T19:41:16.412Z,14.60
2019-05-02T19:43:49.516Z,14.50
2019-05-02T19:46:16.932Z,14.40
2019-05-02T19:48:45.064Z,14.30
2019-05-02T19:51:18.479Z,14.30
2019-05-02T19:56:12.804Z,14.20
2019-05-02T20:01:12.704Z,14.10
2019-05-02T20:03:42.391Z,14.10
2019-05-02T20:06:12.805Z,14.10
2019-05-02T20:11:12.451Z,14.20
2019-05-02T20:13:40.814Z,14.10
2019-05-02T20:16:31.946Z,14.10
2019-05-02T20:19:01.947Z,14.10
2019-05-02T20:24:03.955Z,14.10
2019-05-02T20:26:32.553Z,14.00
2019-05-02T20:29:02.012Z,14.00
2019-05-02T20:31:32.139Z,14.00
2019-05-02T20:34:02.577Z,14.00
2019-05-02T20:36:32.082Z,14.00
2019-05-02T20:41:30.698Z,14.00
2019-05-02T20:46:27.238Z,13.90
2019-05-02T20:51:23.881Z,13.90
2019-05-02T20:53:52.715Z,13.80
2019-05-02T20:56:22.961Z,13.70
2019-05-02T20:58:52.634Z,13.60
2019-05-02T21:01:21.573Z,13.40
2019-05-02T21:03:52.067Z,13.40
2019-05-02T21:06:40.130Z,13.30
2019-05-02T21:09:02.377Z,13.20
2019-05-02T21:11:32.402Z,13.10
2019-05-02T21:16:32.132Z,13.00
2019-05-02T21:19:02.244Z,12.90
2019-05-02T21:21:32.546Z,12.90
2019-05-02T21:24:02.093Z,12.80
2019-05-02T21:26:32.762Z,12.80
2019-05-02T21:29:00.864Z,12.70
2019-05-02T21:31:29.280Z,12.60
2019-05-02T21:33:59.580Z,12.60
2019-05-02T21:36:27.982Z,12.40
2019-05-02T21:38:56.397Z,12.40
2019-05-02T21:41:24.868Z,12.40
2019-05-02T21:43:53.279Z,12.30
2019-05-02T21:46:22.398Z,12.30
2019-05-02T21:51:25.404Z,12.30
2019-05-02T21:54:12.256Z,12.30
2019-05-02T21:56:43.045Z,12.30
2019-05-02T21:59:12.524Z,12.20
2019-05-02T22:01:45.669Z,12.10
2019-05-02T22:04:14.151Z,12.00
2019-05-02T22:06:42.873Z,11.90
2019-05-02T22:09:12.441Z,11.90
2019-05-02T22:11:42.898Z,11.90
2019-05-02T22:14:13.292Z,11.90
2019-05-02T22:16:42.131Z,11.80
2019-05-02T22:19:10.954Z,11.80
2019-05-02T22:21:39.439Z,11.70
2019-05-02T22:24:11.509Z,11.80
2019-05-02T22:26:38.057Z,11.80
2019-05-02T22:29:06.541Z,11.80
2019-05-02T22:31:35.220Z,11.70
2019-05-02T22:34:04.004Z,11.70
2019-05-02T22:36:32.849Z,11.70
2019-05-02T22:39:05.886Z,11.70
2019-05-02T22:41:34.294Z,11.60
2019-05-02T22:46:43.305Z,11.40
2019-05-02T22:49:14.635Z,11.40
2019-05-02T22:51:43.269Z,11.40
2019-05-02T22:54:24.111Z,11.40
2019-05-02T22:56:42.594Z,11.40
2019-05-02T23:01:39.313Z,11.50
2019-05-02T23:04:07.723Z,11.50
2019-05-02T23:06:36.130Z,11.50
2019-05-02T23:09:06.642Z,11.40
2019-05-02T23:11:35.308Z,11.50
2019-05-02T23:14:04.456Z,11.40
2019-05-02T23:16:34.637Z,11.30
2019-05-02T23:19:02.977Z,11.30
2019-05-02T23:21:32.504Z,11.20
2019-05-02T23:24:02.983Z,11.10
2019-05-02T23:26:49.443Z,11.00
2019-05-02T23:29:19.412Z,11.00
2019-05-02T23:31:47.809Z,11.00
2019-05-02T23:36:44.292Z,11.00
2019-05-02T23:39:12.706Z,11.00
2019-05-02T23:46:42.385Z,11.10
2019-05-02T23:49:12.663Z,11.10
2019-05-02T23:51:42.795Z,11.10
2019-05-02T23:54:12.919Z,11.00
2019-05-02T23:56:42.983Z,11.00
2019-05-02T23:59:11.914Z,11.00
